createdAt,value
2019-05-13T00:00:25.251Z,1.70
2019-05-13T00:02:54.268Z,3.10
2019-05-13T00:05:20.748Z,2.10
2019-05-13T00:07:47.434Z,3.30
2019-05-13T00:10:14.930Z,2.23
2019-05-13T00:12:44.514Z,3.23
2019-05-13T00:15:13.961Z,4.93
2019-05-13T00:17:41.110Z,1.73
2019-05-13T00:20:08.326Z,2.20
2019-05-13T00:22:35.016Z,1.60
2019-05-13T00:25:04.054Z,4.93
2019-05-13T00:27:33.732Z,1.93
2019-05-13T00:29:59.841Z,2.70
2019-05-13T00:32:26.593Z,2.77
2019-05-13T00:34:53.475Z,1.77
2019-05-13T00:37:20.436Z,2.47
2019-05-13T00:39:47.000Z,1.80
2019-05-13T00:42:14.246Z,3.10
2019-05-13T00:44:41.186Z,1.80
2019-05-13T00:47:07.980Z,3.00
2019-05-13T00:49:34.829Z,2.30
2019-05-13T00:52:03.896Z,2.50
2019-05-13T00:54:30.702Z,2.40
2019-05-13T00:56:57.293Z,1.93
2019-05-13T00:59:24.314Z,1.70
2019-05-13T01:01:53.313Z,4.33
2019-05-13T01:04:20.245Z,2.43
2019-05-13T01:06:46.816Z,1.87
2019-05-13T01:09:14.534Z,2.07
2019-05-13T01:11:43.628Z,2.87
2019-05-13T01:14:10.079Z,2.07
2019-05-13T01:16:36.910Z,2.67
2019-05-13T01:19:04.176Z,1.97
2019-05-13T01:21:31.074Z,2.80
2019-05-13T01:23:57.791Z,2.80
2019-05-13T01:26:24.531Z,2.83
2019-05-13T01:28:53.456Z,2.53
2019-05-13T01:31:19.786Z,2.30
2019-05-13T01:33:46.376Z,1.27
2019-05-13T01:36:13.463Z,3.63
2019-05-13T01:38:43.571Z,2.43
2019-05-13T01:41:10.706Z,2.73
2019-05-13T01:43:37.385Z,2.17
2019-05-13T01:46:04.640Z,3.73
2019-05-13T01:48:33.314Z,0.97
2019-05-13T01:51:00.095Z,2.70
2019-05-13T01:53:27.145Z,2.03
2019-05-13T01:55:53.863Z,2.47
2019-05-13T01:58:20.509Z,4.17
2019-05-13T02:00:47.093Z,2.30
2019-05-13T02:03:14.527Z,1.77
2019-05-13T02:05:43.924Z,1.73
2019-05-13T02:08:10.410Z,0.80
2019-05-13T02:10:39.096Z,1.50
2019-05-13T02:13:05.754Z,1.77
2019-05-13T02:15:33.753Z,0.80
2019-05-13T02:18:00.648Z,1.60
2019-05-13T02:20:27.510Z,1.20
2019-05-13T02:22:54.063Z,1.93
2019-05-13T02:25:20.698Z,1.77
2019-05-13T02:27:47.344Z,1.73
2019-05-13T02:30:15.941Z,0.90
2019-05-13T02:32:43.126Z,1.00
2019-05-13T02:35:13.521Z,2.03
2019-05-13T02:37:43.506Z,1.33
2019-05-13T02:40:13.219Z,1.23
2019-05-13T02:42:38.788Z,0.83
2019-05-13T02:45:05.930Z,1.00
2019-05-13T02:47:33.166Z,1.90
2019-05-13T02:50:05.050Z,1.50
2019-05-13T02:52:33.453Z,0.90
2019-05-13T02:55:03.598Z,0.77
2019-05-13T02:57:27.988Z,1.00
2019-05-13T02:59:54.888Z,1.03
2019-05-13T03:02:22.354Z,0.60
2019-05-13T03:04:52.092Z,1.47
2019-05-13T03:07:17.969Z,2.00
2019-05-13T03:09:44.628Z,0.73
2019-05-13T03:12:13.088Z,0.87
2019-05-13T03:14:47.969Z,0.83
2019-05-13T03:17:13.685Z,2.43
2019-05-13T03:19:43.254Z,0.77
2019-05-13T03:22:09.305Z,1.33
2019-05-13T03:24:35.904Z,0.90
2019-05-13T03:27:02.868Z,1.60
2019-05-13T03:29:32.965Z,1.03
2019-05-13T03:31:58.841Z,0.77
2019-05-13T03:34:27.250Z,2.67
2019-05-13T03:36:57.738Z,8.73
2019-05-13T03:39:27.488Z,4.47
2019-05-13T03:41:58.451Z,0.60
2019-05-13T03:44:32.545Z,1.37
2019-05-13T03:47:03.481Z,0.87
2019-05-13T03:49:34.169Z,1.07
2019-05-13T03:52:02.893Z,2.50
2019-05-13T03:54:32.811Z,0.77
2019-05-13T03:56:59.299Z,1.07
2019-05-13T03:59:27.214Z,1.30
2019-05-13T04:01:55.073Z,0.97
2019-05-13T04:04:23.317Z,1.00
2019-05-13T04:06:53.101Z,1.47
2019-05-13T04:09:27.615Z,0.90
2019-05-13T04:11:52.338Z,1.47
2019-05-13T04:14:17.945Z,1.27
2019-05-13T04:16:44.792Z,0.80
2019-05-13T04:19:12.407Z,1.50
2019-05-13T04:21:42.985Z,0.93
2019-05-13T04:24:12.012Z,0.87
2019-05-13T04:26:37.316Z,2.03
2019-05-13T04:29:03.868Z,2.50
2019-05-13T04:31:33.297Z,1.23
2019-05-13T04:34:02.195Z,0.70
2019-05-13T04:36:28.282Z,3.03
2019-05-13T04:38:56.037Z,1.23
2019-05-13T04:41:23.442Z,1.40
2019-05-13T04:43:53.601Z,2.07
2019-05-13T04:46:22.459Z,1.00
2019-05-13T04:48:48.034Z,1.50
2019-05-13T04:51:14.882Z,2.30
2019-05-13T04:53:42.522Z,2.53
2019-05-13T04:56:13.278Z,1.10
2019-05-13T04:58:38.882Z,3.70
2019-05-13T05:01:14.116Z,4.40
2019-05-13T05:03:46.229Z,2.30
2019-05-13T05:06:15.131Z,2.13
2019-05-13T05:08:48.053Z,2.87
2019-05-13T05:11:22.229Z,1.87
2019-05-13T05:13:56.753Z,3.67
2019-05-13T05:16:32.399Z,3.23
2019-05-13T05:19:03.622Z,3.40
2019-05-13T05:21:36.038Z,5.33
2019-05-13T05:24:08.453Z,1.77
2019-05-13T05:26:42.128Z,1.77
2019-05-13T05:29:12.593Z,3.20
2019-05-13T05:31:45.144Z,3.53
2019-05-13T05:34:17.688Z,2.93
2019-05-13T05:36:52.057Z,3.33
2019-05-13T05:39:24.163Z,2.37
2019-05-13T05:41:55.633Z,6.20
2019-05-13T05:44:26.883Z,3.07
2019-05-13T05:46:57.045Z,4.30
2019-05-13T05:49:25.703Z,2.67
2019-05-13T05:51:58.042Z,4.80
2019-05-13T05:54:28.736Z,2.80
2019-05-13T05:57:01.239Z,6.03
2019-05-13T05:59:31.822Z,3.43
2019-05-13T06:02:01.971Z,9.27
2019-05-13T06:04:28.390Z,4.27
2019-05-13T06:06:55.677Z,2.57
2019-05-13T06:09:24.563Z,5.07
2019-05-13T06:11:53.463Z,8.17
2019-05-13T06:14:22.196Z,3.57
2019-05-13T06:16:51.849Z,3.93
2019-05-13T06:19:22.353Z,5.57
2019-05-13T06:21:51.186Z,4.90
2019-05-13T06:24:17.508Z,4.10
2019-05-13T06:26:44.606Z,3.97
2019-05-13T06:29:12.555Z,7.43
2019-05-13T06:31:41.750Z,5.20
2019-05-13T06:34:08.385Z,2.97
2019-05-13T06:36:35.649Z,4.30
2019-05-13T06:39:07.339Z,4.30
2019-05-13T06:41:34.014Z,2.40
2019-05-13T06:44:02.361Z,2.67
2019-05-13T06:46:29.207Z,2.53
2019-05-13T06:48:55.969Z,1.93
2019-05-13T06:51:22.764Z,1.40
2019-05-13T06:53:51.589Z,3.90
2019-05-13T06:56:18.045Z,1.50
2019-05-13T06:58:44.710Z,2.50
2019-05-13T07:01:11.693Z,1.80
2019-05-13T07:03:38.425Z,1.70
2019-05-13T07:06:05.130Z,1.97
2019-05-13T07:08:31.692Z,3.37
2019-05-13T07:10:58.539Z,3.07
2019-05-13T07:13:25.168Z,3.07
2019-05-13T07:15:52.274Z,2.70
2019-05-13T07:18:21.737Z,4.73
2019-05-13T07:20:48.839Z,7.30
2019-05-13T07:23:15.536Z,6.07
2019-05-13T07:25:42.341Z,3.50
2019-05-13T07:28:09.074Z,2.63
2019-05-13T07:30:42.475Z,3.07
2019-05-13T07:33:12.558Z,4.43
2019-05-13T07:35:44.300Z,7.53
2019-05-13T07:38:11.512Z,3.67
2019-05-13T07:40:38.027Z,5.37
2019-05-13T07:43:05.358Z,4.57
2019-05-13T07:45:33.176Z,2.93
2019-05-13T07:48:56.356Z,4.23
2019-05-13T07:51:22.961Z,3.13
2019-05-13T07:53:51.705Z,5.63
2019-05-13T07:56:18.114Z,4.50
2019-05-13T07:58:44.770Z,6.60
2019-05-13T08:01:12.418Z,4.73
2019-05-13T08:03:39.166Z,6.40
2019-05-13T08:06:05.967Z,4.43
2019-05-13T08:08:32.586Z,2.67
2019-05-13T08:11:01.173Z,5.20
2019-05-13T08:13:27.822Z,3.90
2019-05-13T08:15:54.804Z,4.63
2019-05-13T08:18:22.187Z,4.47
2019-05-13T08:20:49.214Z,5.03
2019-05-13T08:23:16.092Z,2.80
2019-05-13T08:25:43.103Z,12.30
2019-05-13T08:28:12.242Z,4.00
2019-05-13T08:30:39.395Z,5.33
2019-05-13T12:09:40.926Z,12.00
2019-05-13T12:12:07.938Z,13.53
2019-05-13T12:14:51.023Z,8.87
2019-05-13T12:17:03.157Z,15.23
2019-05-13T12:19:29.833Z,10.97
2019-05-13T12:21:56.798Z,8.33
2019-05-13T12:24:23.539Z,8.20
2019-05-13T12:26:53.149Z,7.40
2019-05-13T12:29:19.477Z,9.83
2019-05-13T12:31:46.225Z,7.63
2019-05-13T12:34:13.455Z,81.13
2019-05-13T12:36:43.303Z,12.97
2019-05-13T12:39:13.797Z,7.63
2019-05-13T12:41:38.936Z,8.97
2019-05-13T12:44:05.776Z,11.00
2019-05-13T12:46:32.725Z,8.80
2019-05-13T12:48:59.365Z,6.20
2019-05-13T12:51:26.361Z,6.80
2019-05-13T12:53:53.129Z,5.80
2019-05-13T12:56:23.218Z,5.40
2019-05-13T12:58:51.266Z,5.30
2019-05-13T13:01:17.522Z,8.33
2019-05-13T13:03:44.167Z,9.37
2019-05-13T13:06:30.000Z,3.17
2019-05-13T13:08:47.490Z,4.53
2019-05-13T13:11:08.326Z,10.97
2019-05-13T13:13:56.670Z,7.90
2019-05-13T13:16:04.217Z,14.10
2019-05-13T13:18:30.795Z,5.73
2019-05-13T13:21:05.315Z,20.50
2019-05-13T13:23:26.026Z,13.27
2019-05-13T13:25:57.048Z,10.83
2019-05-13T13:28:23.913Z,6.93
2019-05-13T13:30:52.926Z,5.53
2019-05-13T13:33:18.876Z,4.23
2019-05-13T13:38:13.956Z,5.43
2019-05-13T13:40:45.686Z,5.43
2019-05-13T13:43:12.312Z,13.23
2019-05-13T13:46:06.029Z,5.47
2019-05-13T13:48:07.586Z,8.63
2019-05-13T13:50:34.205Z,7.10
2019-05-13T13:53:00.958Z,5.47
2019-05-13T13:55:27.746Z,25.57
2019-05-13T13:57:56.788Z,7.20
2019-05-13T14:00:38.143Z,7.60
2019-05-13T14:02:54.104Z,3.60
2019-05-13T14:05:24.831Z,4.63
2019-05-13T14:06:58.552Z,8.27
2019-05-13T14:07:49.140Z,4.93
2019-05-13T14:10:16.613Z,4.83
2019-05-13T14:12:43.308Z,5.13
2019-05-13T14:15:11.073Z,5.77
2019-05-13T14:17:37.916Z,3.80
2019-05-13T14:20:06.921Z,7.47
2019-05-13T14:22:33.587Z,5.27
2019-05-13T14:25:00.256Z,4.53
2019-05-13T14:27:26.852Z,3.80
2019-05-13T14:29:53.485Z,4.10
2019-05-13T14:32:22.284Z,3.90
2019-05-13T14:34:48.531Z,6.77
2019-05-13T14:37:15.345Z,5.40
2019-05-13T14:39:42.702Z,7.60
2019-05-13T14:42:11.575Z,3.27
2019-05-13T14:44:38.206Z,8.10
2019-05-13T14:47:04.885Z,6.30
2019-05-13T14:49:31.841Z,10.77
2019-05-13T14:52:00.753Z,2.87
2019-05-13T14:54:28.423Z,5.17
2019-05-13T14:56:55.202Z,2.33
2019-05-13T14:59:22.201Z,3.80
2019-05-13T15:01:51.681Z,4.43
2019-05-13T15:04:21.925Z,4.23
2019-05-13T15:06:46.331Z,2.73
2019-05-13T15:09:13.039Z,6.37
2019-05-13T15:11:41.898Z,5.77
2019-05-13T15:14:08.166Z,3.63
2019-05-13T15:16:34.867Z,7.83
2019-05-13T15:19:01.921Z,4.80
2019-05-13T15:21:28.849Z,9.67
2019-05-13T15:23:55.492Z,3.00
2019-05-13T15:26:22.329Z,3.03
2019-05-13T15:28:51.145Z,3.00
2019-05-13T15:31:17.715Z,6.53
2019-05-13T15:33:44.507Z,6.30
2019-05-13T15:36:11.988Z,4.47
2019-05-13T15:38:41.259Z,3.43
2019-05-13T15:41:07.514Z,5.93
2019-05-13T15:43:34.094Z,6.17
2019-05-13T15:46:01.693Z,2.43
2019-05-13T15:48:31.519Z,5.73
2019-05-13T15:50:58.567Z,4.57
2019-05-13T15:53:25.190Z,8.20
2019-05-13T15:55:51.858Z,6.37
2019-05-13T15:58:21.683Z,3.33
2019-05-13T16:00:52.360Z,4.50
2019-05-13T16:03:19.484Z,2.20
2019-05-13T16:05:46.060Z,4.10
2019-05-13T16:08:13.083Z,4.67
2019-05-13T16:10:41.964Z,5.47
2019-05-13T16:13:11.983Z,5.63
2019-05-13T16:15:41.464Z,3.80
2019-05-13T16:18:07.452Z,4.73
2019-05-13T16:20:34.501Z,3.60
2019-05-13T16:23:02.421Z,4.80
2019-05-13T16:25:31.789Z,6.43
2019-05-13T16:27:57.929Z,3.50
2019-05-13T16:30:24.884Z,3.63
2019-05-13T16:32:52.095Z,5.40
2019-05-13T16:35:20.993Z,4.50
2019-05-13T16:37:47.732Z,5.67
2019-05-13T16:40:15.108Z,6.43
2019-05-13T16:42:42.361Z,4.50
2019-05-13T16:45:11.973Z,5.67
2019-05-13T16:47:55.410Z,4.93
2019-05-13T16:50:08.186Z,6.00
2019-05-13T16:52:35.149Z,7.17
2019-05-13T16:55:05.116Z,6.33
2019-05-13T16:57:31.766Z,4.27
2019-05-13T16:59:58.335Z,8.03
2019-05-13T17:02:24.955Z,5.37
2019-05-13T17:04:52.583Z,4.67
2019-05-13T17:07:21.268Z,6.30
2019-05-13T17:09:47.942Z,6.40
2019-05-13T17:12:15.941Z,8.00
2019-05-13T17:14:43.237Z,6.50
2019-05-13T17:17:11.905Z,7.00
2019-05-13T17:19:38.878Z,6.67
2019-05-13T17:22:05.586Z,4.30
2019-05-13T17:24:32.241Z,4.90
2019-05-13T17:27:01.388Z,4.93
2019-05-13T17:29:27.714Z,7.03
2019-05-13T17:31:54.484Z,5.37
2019-05-13T17:34:21.294Z,4.77
2019-05-13T17:36:47.975Z,6.93
2019-05-13T17:39:14.704Z,4.63
2019-05-13T17:41:41.721Z,4.13
2019-05-13T17:44:08.293Z,4.37
2019-05-13T17:46:34.910Z,5.80
2019-05-13T17:49:01.563Z,7.57
2019-05-13T17:51:28.347Z,5.67
2019-05-13T17:53:55.038Z,6.93
2019-05-13T17:56:22.964Z,10.40
2019-05-13T17:58:51.656Z,7.93
2019-05-13T18:01:21.055Z,12.30
2019-05-13T18:03:47.096Z,9.33
2019-05-13T18:06:14.276Z,10.20
2019-05-13T18:08:41.312Z,7.27
2019-05-13T18:11:08.295Z,11.13
2019-05-13T18:13:35.941Z,9.63
2019-05-13T18:16:03.519Z,8.60
2019-05-13T18:18:40.274Z,10.57
2019-05-13T18:21:01.275Z,8.30
2019-05-13T18:23:27.461Z,7.90
2019-05-13T18:25:54.298Z,8.23
2019-05-13T18:28:31.325Z,11.27
2019-05-13T18:30:57.511Z,9.50
2019-05-13T18:33:24.617Z,11.23
2019-05-13T18:35:54.672Z,7.73
2019-05-13T18:38:23.068Z,8.40
2019-05-13T18:40:52.386Z,11.20
2019-05-13T18:43:18.503Z,15.30
2019-05-13T18:45:45.363Z,10.53
2019-05-13T18:48:13.278Z,13.10
2019-05-13T18:50:42.002Z,9.37
2019-05-13T18:53:08.869Z,10.23
2019-05-13T18:55:36.301Z,10.73
2019-05-13T18:58:03.148Z,11.73
2019-05-13T19:00:32.070Z,13.50
2019-05-13T19:03:01.119Z,21.37
2019-05-13T19:05:28.390Z,31.13
2019-05-13T19:07:55.000Z,14.53
2019-05-13T19:10:24.890Z,16.33
2019-05-13T19:12:51.533Z,25.93
2019-05-13T19:15:21.258Z,15.30
2019-05-13T19:17:48.331Z,16.00
2019-05-13T19:20:15.202Z,18.00
2019-05-13T19:22:42.179Z,17.43
2019-05-13T19:25:11.955Z,22.20
2019-05-13T19:27:41.372Z,20.47
2019-05-13T19:30:12.117Z,19.67
2019-05-13T19:32:41.714Z,18.37
2019-05-13T19:35:11.689Z,22.43
2019-05-13T19:37:38.024Z,18.33
2019-05-13T19:40:05.599Z,18.17
2019-05-13T19:42:33.235Z,25.20
2019-05-13T19:45:01.933Z,20.90
2019-05-13T19:47:28.899Z,19.00
2019-05-13T19:49:55.864Z,24.43
2019-05-13T19:52:22.714Z,21.57
2019-05-13T19:54:51.397Z,24.80
2019-05-13T19:57:18.513Z,19.87
2019-05-13T19:59:45.543Z,23.67
2019-05-13T20:02:12.637Z,23.57
2019-05-13T20:04:41.365Z,27.97
2019-05-13T20:07:08.395Z,35.27
2019-05-13T20:09:34.980Z,29.73
2019-05-13T20:12:02.669Z,34.10
2019-05-13T20:14:29.459Z,30.93
2019-05-13T20:16:56.748Z,27.30
2019-05-13T20:19:23.586Z,38.60
2019-05-13T20:21:51.728Z,36.03
2019-05-13T20:24:18.825Z,28.57
2019-05-13T20:26:46.514Z,40.83
2019-05-13T20:29:13.281Z,38.70
2019-05-13T20:31:41.304Z,34.97
2019-05-13T20:34:08.322Z,36.97
2019-05-13T20:36:35.036Z,29.17
2019-05-13T20:39:02.221Z,32.70
2019-05-13T20:41:31.556Z,29.53
2019-05-13T20:43:58.006Z,28.70
2019-05-13T20:46:24.577Z,29.47
2019-05-13T20:48:51.948Z,26.90
2019-05-13T20:51:18.907Z,28.17
2019-05-13T20:53:48.482Z,24.37
2019-05-13T20:56:16.989Z,30.77
2019-05-13T20:58:43.649Z,27.73
2019-05-13T21:01:11.143Z,25.63
2019-05-13T21:03:38.030Z,25.63
2019-05-13T21:06:06.768Z,25.97
2019-05-13T21:08:33.394Z,25.87
2019-05-13T21:11:02.319Z,29.20
2019-05-13T21:13:31.459Z,29.33
2019-05-13T21:15:58.232Z,26.77
2019-05-13T21:18:24.909Z,25.27
2019-05-13T21:20:51.484Z,29.33
2019-05-13T21:23:18.104Z,28.57
2019-05-13T21:25:44.697Z,22.70
2019-05-13T21:28:11.543Z,23.90
2019-05-13T21:30:38.314Z,27.37
2019-05-13T21:33:05.055Z,27.07
2019-05-13T21:35:31.733Z,21.53
2019-05-13T21:37:58.401Z,25.50
2019-05-13T21:40:25.125Z,24.47
2019-05-13T21:42:52.703Z,28.10
2019-05-13T21:45:19.535Z,25.97
2019-05-13T21:47:46.208Z,23.90
2019-05-13T21:50:13.449Z,26.10
2019-05-13T21:52:41.825Z,24.73
2019-05-13T21:55:11.203Z,25.17
2019-05-13T21:57:37.703Z,25.17
2019-05-13T22:00:08.700Z,17.43
2019-05-13T22:02:37.409Z,20.43
2019-05-13T22:05:04.455Z,11.70
2019-05-13T22:07:31.724Z,13.37
2019-05-13T22:09:58.500Z,9.37
2019-05-13T22:12:25.487Z,9.63
2019-05-13T22:14:52.242Z,7.03
2019-05-13T22:17:18.960Z,7.43
2019-05-13T22:19:45.562Z,7.33
2019-05-13T22:22:12.519Z,7.33
2019-05-13T22:24:39.078Z,6.97
2019-05-13T22:27:06.917Z,9.23
2019-05-13T22:29:33.577Z,6.33
2019-05-13T22:32:01.986Z,8.53
2019-05-13T22:34:29.169Z,6.90
2019-05-13T22:36:55.790Z,8.60
2019-05-13T22:39:22.646Z,6.30
2019-05-13T22:41:49.447Z,7.00
2019-05-13T22:44:16.084Z,7.40
2019-05-13T22:46:43.219Z,9.70
2019-05-13T22:49:11.604Z,8.67
2019-05-13T22:51:38.351Z,7.83
2019-05-13T22:54:05.095Z,7.97
2019-05-13T22:56:32.051Z,7.57
2019-05-13T22:58:58.747Z,8.57
2019-05-13T23:01:25.477Z,7.63
2019-05-13T23:03:52.091Z,10.37
2019-05-13T23:06:21.628Z,6.33
2019-05-13T23:08:48.576Z,7.27
2019-05-13T23:11:15.175Z,6.10
2019-05-13T23:13:42.370Z,8.13
2019-05-13T23:16:11.416Z,11.20
2019-05-13T23:18:37.921Z,8.43
2019-05-13T23:21:04.521Z,6.63
2019-05-13T23:23:31.161Z,10.17
2019-05-13T23:25:57.989Z,9.47
2019-05-13T23:28:24.628Z,12.00
2019-05-13T23:30:51.313Z,12.50
2019-05-13T23:33:18.134Z,11.63
2019-05-13T23:35:46.820Z,12.20
2019-05-13T23:38:13.622Z,10.83
2019-05-13T23:40:42.208Z,8.90
2019-05-13T23:43:11.272Z,9.50
2019-05-13T23:45:38.035Z,8.97
2019-05-13T23:48:04.596Z,10.37
2019-05-13T23:50:32.147Z,8.80
2019-05-13T23:52:59.350Z,10.70
2019-05-13T23:55:27.295Z,7.70
2019-05-13T23:57:53.919Z,9.57
